createdAt,value
2022-12-27T00:01:21.688Z,5.27
2022-12-27T00:03:53.931Z,6.97
2022-12-27T00:06:27.931Z,6.43
2022-12-27T00:08:59.335Z,12.37
2022-12-27T00:11:31.442Z,11.33
2022-12-27T00:14:05.202Z,5.93
2022-12-27T00:16:37.683Z,3.50
2022-12-27T00:19:09.000Z,11.87
2022-12-27T00:21:40.411Z,11.47
2022-12-27T00:24:11.678Z,10.27
2022-12-27T00:26:43.088Z,8.67
2022-12-27T00:29:14.390Z,5.73
2022-12-27T00:31:45.727Z,10.33
2022-12-27T00:34:17.123Z,5.73
2022-12-27T00:36:48.489Z,4.43
2022-12-27T00:39:19.809Z,13.97
2022-12-27T00:41:51.109Z,7.43
2022-12-27T00:44:22.382Z,9.53
2022-12-27T00:46:53.722Z,13.40
2022-12-27T00:49:25.002Z,8.33
2022-12-27T00:51:56.336Z,6.13
2022-12-27T00:54:27.773Z,4.80
2022-12-27T00:56:59.077Z,8.20
2022-12-27T00:59:30.421Z,3.33
2022-12-27T01:02:02.051Z,6.30
2022-12-27T01:04:33.700Z,11.07
2022-12-27T01:07:05.002Z,10.90
2022-12-27T01:09:36.259Z,3.73
2022-12-27T01:12:07.556Z,5.77
2022-12-27T01:14:38.863Z,6.80
2022-12-27T01:17:10.329Z,7.00
2022-12-27T01:19:41.664Z,5.43
2022-12-27T01:22:12.956Z,9.07
2022-12-27T01:24:44.287Z,5.30
2022-12-27T01:27:15.631Z,7.83
2022-12-27T01:29:46.941Z,7.30
2022-12-27T01:32:18.340Z,5.20
2022-12-27T01:34:50.953Z,3.93
2022-12-27T01:37:22.229Z,4.97
2022-12-27T01:39:53.608Z,5.80
2022-12-27T01:42:43.535Z,3.53
2022-12-27T01:45:21.099Z,9.03
2022-12-27T01:48:14.234Z,4.27
2022-12-27T01:50:53.404Z,6.33
2022-12-27T01:53:30.123Z,6.73
2022-12-27T01:56:02.864Z,9.40
2022-12-27T01:58:42.020Z,10.93
2022-12-27T02:01:17.653Z,11.13
2022-12-27T02:03:54.057Z,3.30
2022-12-27T02:06:27.561Z,5.37
2022-12-27T02:09:24.584Z,5.10
2022-12-27T02:11:57.840Z,8.15
2022-12-27T02:14:38.043Z,6.70
2022-12-27T02:17:22.466Z,11.37
2022-12-27T02:20:14.367Z,5.53
2022-12-27T02:23:23.284Z,6.63
2022-12-27T02:26:10.070Z,3.73
2022-12-27T02:31:49.642Z,3.13
2022-12-27T02:34:52.012Z,5.43
2022-12-27T02:37:27.390Z,6.87
2022-12-27T02:40:21.542Z,4.22
2022-12-27T02:43:12.670Z,5.13
2022-12-27T02:46:17.147Z,5.43
2022-12-27T02:49:15.196Z,9.57
2022-12-27T02:52:21.676Z,7.83
2022-12-27T02:55:10.803Z,8.13
2022-12-27T02:57:53.318Z,4.27
2022-12-27T03:00:44.274Z,7.60
2022-12-27T03:03:26.593Z,6.77
2022-12-27T03:06:35.620Z,7.63
2022-12-27T03:09:42.302Z,4.90
2022-12-27T03:13:04.599Z,6.07
2022-12-27T03:15:55.880Z,6.00
2022-12-27T03:18:37.622Z,10.63
2022-12-27T03:21:32.663Z,6.63
2022-12-27T03:24:24.224Z,5.67
2022-12-27T03:26:58.043Z,6.67
2022-12-27T03:29:49.689Z,10.60
2022-12-27T03:32:42.381Z,7.00
2022-12-27T03:35:19.469Z,4.93
2022-12-27T03:38:03.563Z,10.30
2022-12-27T03:41:03.899Z,5.83
2022-12-27T03:43:37.362Z,7.43
2022-12-27T03:46:34.792Z,5.07
2022-12-27T03:49:25.189Z,6.77
2022-12-27T03:52:17.059Z,11.13
2022-12-27T03:54:50.861Z,7.27
2022-12-27T03:57:24.786Z,9.47
2022-12-27T03:59:56.435Z,7.93
2022-12-27T04:02:29.025Z,9.10
2022-12-27T04:05:00.586Z,15.67
2022-12-27T04:07:31.870Z,10.43
2022-12-27T04:10:22.946Z,6.03
2022-12-27T04:13:12.728Z,6.57
2022-12-27T04:16:02.505Z,14.27
2022-12-27T04:18:52.334Z,8.57
2022-12-27T04:21:42.411Z,9.83
2022-12-27T04:24:32.384Z,14.03
2022-12-27T04:27:22.755Z,6.87
2022-12-27T04:30:12.569Z,8.37
2022-12-27T04:33:02.335Z,5.77
2022-12-27T04:35:33.647Z,6.63
2022-12-27T04:38:05.122Z,6.23
2022-12-27T04:40:54.922Z,10.53
2022-12-27T04:43:45.086Z,7.73
2022-12-27T04:46:44.330Z,5.07
2022-12-27T04:49:44.296Z,8.30
2022-12-27T04:52:37.535Z,7.50
2022-12-27T04:55:20.005Z,10.83
2022-12-27T04:57:52.319Z,10.77
2022-12-27T05:00:45.631Z,7.83
2022-12-27T05:03:19.945Z,8.87
2022-12-27T05:05:52.326Z,9.47
2022-12-27T05:08:42.095Z,12.53
2022-12-27T05:11:32.082Z,8.80
2022-12-27T05:14:08.808Z,11.00
2022-12-27T05:16:42.563Z,9.37
2022-12-27T05:19:14.724Z,9.83
2022-12-27T05:22:06.092Z,9.23
2022-12-27T05:24:55.838Z,12.17
2022-12-27T05:27:27.229Z,14.07
2022-12-27T05:29:58.586Z,12.93
2022-12-27T05:32:29.914Z,9.17
2022-12-27T05:35:01.178Z,14.73
2022-12-27T05:37:32.458Z,4.80
2022-12-27T05:40:04.084Z,12.43
2022-12-27T05:42:35.360Z,6.17
2022-12-27T05:45:07.729Z,9.30
2022-12-27T05:47:39.009Z,8.77
2022-12-27T05:50:10.839Z,12.40
2022-12-27T05:52:42.209Z,7.53
2022-12-27T05:55:13.485Z,7.27
2022-12-27T05:57:44.820Z,13.13
2022-12-27T06:00:16.341Z,9.70
2022-12-27T06:02:47.755Z,15.97
2022-12-27T06:05:19.178Z,13.70
2022-12-27T06:07:50.751Z,10.80
2022-12-27T06:10:22.036Z,8.33
2022-12-27T06:12:53.312Z,8.77
2022-12-27T06:15:24.575Z,13.23
2022-12-27T06:17:56.139Z,10.17
2022-12-27T06:20:27.401Z,9.33
2022-12-27T06:23:00.170Z,14.17
2022-12-27T06:25:31.477Z,9.27
2022-12-27T06:28:02.825Z,10.10
2022-12-27T06:30:36.246Z,9.43
2022-12-27T06:33:07.833Z,10.63
2022-12-27T06:35:39.083Z,10.67
2022-12-27T06:38:10.356Z,10.10
2022-12-27T06:40:41.653Z,9.27
2022-12-27T06:43:13.030Z,8.00
2022-12-27T06:45:44.348Z,13.53
2022-12-27T06:48:15.656Z,9.97
2022-12-27T06:50:46.920Z,13.53
2022-12-27T06:53:18.303Z,7.10
2022-12-27T06:55:49.670Z,7.13
2022-12-27T06:58:20.987Z,7.77
2022-12-27T07:00:52.275Z,16.80
2022-12-27T07:03:23.693Z,8.47
2022-12-27T07:05:54.973Z,11.17
2022-12-27T07:08:26.300Z,12.30
2022-12-27T07:11:06.463Z,7.50
2022-12-27T07:13:42.859Z,8.40
2022-12-27T07:16:16.346Z,8.73
2022-12-27T07:18:49.824Z,10.47
2022-12-27T07:21:24.004Z,14.53
2022-12-27T07:23:56.285Z,8.20
2022-12-27T07:26:30.418Z,10.23
2022-12-27T07:29:02.143Z,9.63
2022-12-27T07:31:33.634Z,11.90
2022-12-27T07:34:04.951Z,14.13
2022-12-27T07:36:40.098Z,8.60
2022-12-27T07:39:12.268Z,11.13
2022-12-27T07:41:43.626Z,11.17
2022-12-27T07:44:15.012Z,16.57
2022-12-27T07:46:46.293Z,12.87
2022-12-27T07:49:18.266Z,8.30
2022-12-27T07:51:49.586Z,7.60
2022-12-27T07:54:20.889Z,8.37
2022-12-27T07:56:52.164Z,11.37
2022-12-27T07:59:23.557Z,10.03
2022-12-27T08:02:04.165Z,9.40
2022-12-27T08:04:38.121Z,7.83
2022-12-27T08:07:16.109Z,10.47
2022-12-27T08:09:48.207Z,10.53
2022-12-27T08:12:19.511Z,9.90
2022-12-27T08:14:50.971Z,7.57
2022-12-27T08:17:27.009Z,9.00
2022-12-27T08:19:58.426Z,7.32
2022-12-27T08:22:29.704Z,9.50
2022-12-27T08:25:01.154Z,11.30
2022-12-27T08:27:32.524Z,9.63
2022-12-27T08:30:04.159Z,10.00
2022-12-27T08:32:35.465Z,13.10
2022-12-27T08:35:41.984Z,9.30
2022-12-27T08:38:01.702Z,10.47
2022-12-27T08:40:32.985Z,13.37
2022-12-27T08:43:04.383Z,14.43
2022-12-27T08:45:42.240Z,21.37
2022-12-27T08:48:14.045Z,5.63
2022-12-27T08:50:45.449Z,10.63
2022-12-27T08:53:18.895Z,11.53
2022-12-27T08:55:50.732Z,13.23
2022-12-27T08:58:31.221Z,6.37
2022-12-27T09:01:10.041Z,6.63
2022-12-27T09:03:41.648Z,10.57
2022-12-27T09:06:18.792Z,6.00
2022-12-27T09:08:51.383Z,6.37
2022-12-27T09:11:31.461Z,6.00
2022-12-27T09:14:04.807Z,8.70
2022-12-27T09:16:36.189Z,8.53
2022-12-27T09:19:07.588Z,11.03
2022-12-27T09:21:41.009Z,9.70
2022-12-27T09:24:13.498Z,9.17
2022-12-27T09:26:45.018Z,4.23
2022-12-27T09:29:16.421Z,10.17
2022-12-27T09:31:47.765Z,5.80
2022-12-27T09:34:19.151Z,10.13
2022-12-27T09:36:50.476Z,8.77
2022-12-27T09:39:21.762Z,6.80
2022-12-27T09:45:08.887Z,7.57
2022-12-27T09:47:48.133Z,9.30
2022-12-27T09:50:49.322Z,8.47
2022-12-27T09:53:22.645Z,9.83
2022-12-27T09:55:57.819Z,8.40
2022-12-27T09:58:39.838Z,7.40
2022-12-27T10:01:19.923Z,10.80
2022-12-27T10:03:52.034Z,8.17
2022-12-27T10:06:48.047Z,10.90
2022-12-27T10:09:35.305Z,8.10
2022-12-27T10:12:54.325Z,10.13
2022-12-27T10:16:10.598Z,6.77
2022-12-27T10:18:54.810Z,7.47
2022-12-27T10:21:27.975Z,8.17
2022-12-27T10:24:20.702Z,10.80
2022-12-27T10:26:55.391Z,8.03
2022-12-27T10:29:27.925Z,9.83
2022-12-27T10:31:59.330Z,8.27
2022-12-27T10:34:30.627Z,7.23
2022-12-27T10:37:01.889Z,8.63
2022-12-27T10:39:35.767Z,6.07
2022-12-27T10:42:22.004Z,7.70
2022-12-27T10:45:28.411Z,12.00
2022-12-27T10:48:32.233Z,11.07
2022-12-27T10:51:18.993Z,7.77
2022-12-27T10:53:50.259Z,9.57
2022-12-27T10:56:30.179Z,6.43
2022-12-27T10:59:15.503Z,10.77
2022-12-27T11:01:49.748Z,6.50
2022-12-27T11:04:24.670Z,11.70
2022-12-27T11:07:05.108Z,6.57
2022-12-27T11:09:37.474Z,4.63
2022-12-27T11:12:13.760Z,7.17
2022-12-27T11:17:53.602Z,6.60
2022-12-27T11:20:29.583Z,6.70
2022-12-27T11:23:21.327Z,8.32
2022-12-27T11:25:53.937Z,6.90
2022-12-27T11:28:33.348Z,5.07
2022-12-27T11:31:11.589Z,8.00
2022-12-27T11:33:49.747Z,6.83
2022-12-27T11:36:28.103Z,8.63
2022-12-27T11:39:02.768Z,14.53
2022-12-27T11:41:50.847Z,9.33
2022-12-27T11:44:26.781Z,9.63
2022-12-27T11:47:13.916Z,11.35
2022-12-27T11:50:19.441Z,10.93
2022-12-27T11:53:20.619Z,6.63
2022-12-27T11:55:54.620Z,6.53
2022-12-27T11:58:44.231Z,8.67
2022-12-27T12:01:27.814Z,9.63
2022-12-27T12:04:20.932Z,7.07
2022-12-27T12:07:01.163Z,9.53
2022-12-27T12:09:59.408Z,13.60
2022-12-27T12:13:01.625Z,19.83
2022-12-27T12:16:05.485Z,9.83
2022-12-27T12:19:15.898Z,5.17
2022-12-27T12:22:17.732Z,7.43
2022-12-27T12:25:31.812Z,8.47
2022-12-27T12:28:56.518Z,9.30
2022-12-27T12:31:37.555Z,9.77
2022-12-27T12:34:35.041Z,7.00
2022-12-27T12:37:30.237Z,5.30
2022-12-27T12:40:32.972Z,9.87
2022-12-27T12:43:35.044Z,12.70
2022-12-27T12:46:25.843Z,6.53
2022-12-27T12:49:24.300Z,13.70
2022-12-27T12:52:13.905Z,9.17
2022-12-27T12:55:04.592Z,7.30
2022-12-27T12:58:14.439Z,11.03
2022-12-27T13:01:04.481Z,13.03
2022-12-27T13:04:08.325Z,8.17
2022-12-27T13:06:58.259Z,10.43
2022-12-27T13:09:54.355Z,11.03
2022-12-27T13:12:50.530Z,13.87
2022-12-27T13:15:37.590Z,9.20
2022-12-27T13:18:34.561Z,13.27
2022-12-27T13:21:48.119Z,8.77
2022-12-27T13:24:34.697Z,8.90
2022-12-27T13:27:17.780Z,6.30
2022-12-27T13:30:07.380Z,9.37
2022-12-27T13:33:00.672Z,5.50
2022-12-27T13:35:39.326Z,5.67
2022-12-27T13:38:29.884Z,8.63
2022-12-27T13:41:28.056Z,8.93
2022-12-27T13:44:10.890Z,5.80
2022-12-27T13:47:01.117Z,8.70
2022-12-27T13:49:57.263Z,9.07
2022-12-27T13:52:31.229Z,6.20
2022-12-27T13:55:15.247Z,11.47
2022-12-27T13:58:07.749Z,8.50
2022-12-27T14:01:20.677Z,16.57
2022-12-27T14:04:33.942Z,8.70
2022-12-27T14:07:36.833Z,8.93
2022-12-27T14:10:11.542Z,11.33
2022-12-27T14:13:01.385Z,8.13
2022-12-27T14:15:54.390Z,15.50
2022-12-27T14:18:54.835Z,6.17
2022-12-27T14:21:47.198Z,6.20
2022-12-27T14:24:51.155Z,9.20
2022-12-27T14:27:55.178Z,9.53
2022-12-27T14:30:54.503Z,9.07
2022-12-27T14:34:03.094Z,8.73
2022-12-27T14:37:11.849Z,9.40
2022-12-27T14:39:45.788Z,8.23
2022-12-27T14:42:54.643Z,5.30
2022-12-27T14:46:10.438Z,8.27
2022-12-27T14:48:53.562Z,9.47
2022-12-27T14:52:01.823Z,10.60
2022-12-27T14:55:02.632Z,8.10
2022-12-27T14:57:55.214Z,11.00
2022-12-27T15:00:29.350Z,7.60
2022-12-27T15:03:13.893Z,12.50
2022-12-27T15:06:15.176Z,11.73
2022-12-27T15:09:02.517Z,7.53
2022-12-27T15:11:50.331Z,7.00
2022-12-27T15:14:40.366Z,6.13
2022-12-27T15:17:27.372Z,6.90
2022-12-27T15:20:20.209Z,8.23
2022-12-27T15:23:22.351Z,7.50
2022-12-27T15:26:12.400Z,7.90
2022-12-27T15:29:21.228Z,10.53
2022-12-27T15:32:37.467Z,7.57
2022-12-27T15:35:33.604Z,12.53
2022-12-27T15:38:10.724Z,7.83
2022-12-27T15:41:08.315Z,8.60
2022-12-27T15:43:54.752Z,9.27
2022-12-27T15:46:49.377Z,8.88
2022-12-27T15:49:20.792Z,10.03
2022-12-27T15:52:10.963Z,6.87
2022-12-27T15:54:50.275Z,13.40
2022-12-27T15:57:36.603Z,16.00
2022-12-27T16:00:23.062Z,15.27
2022-12-27T16:03:00.372Z,20.52
2022-12-27T16:05:47.197Z,8.97
2022-12-27T16:08:26.898Z,8.85
2022-12-27T16:10:59.037Z,15.80
2022-12-27T16:13:42.872Z,16.50
2022-12-27T16:16:26.753Z,15.20
2022-12-27T16:19:34.138Z,11.80
2022-12-27T16:22:58.078Z,49.03
2022-12-27T16:25:40.839Z,46.63
2022-12-27T16:28:26.089Z,45.53
2022-12-27T16:30:59.448Z,50.17
2022-12-27T16:33:37.446Z,40.40
2022-12-27T16:36:11.823Z,50.23
2022-12-27T16:39:14.236Z,47.17
2022-12-27T16:41:57.625Z,31.73
2022-12-27T16:44:56.503Z,22.37
2022-12-27T16:47:38.115Z,20.10
2022-12-27T16:50:54.014Z,18.90
2022-12-27T16:53:43.918Z,18.73
2022-12-27T16:56:27.988Z,16.67
2022-12-27T16:58:59.737Z,14.63
2022-12-27T17:01:52.601Z,10.07
2022-12-27T17:05:01.361Z,11.10
2022-12-27T17:07:42.076Z,16.87
2022-12-27T17:10:34.014Z,16.43
2022-12-27T17:13:15.163Z,12.43
2022-12-27T17:16:05.145Z,17.83
2022-12-27T17:18:48.762Z,11.93
2022-12-27T17:21:30.312Z,11.90
2022-12-27T17:24:06.945Z,16.33
2022-12-27T17:26:49.404Z,17.38
2022-12-27T17:29:42.794Z,21.07
2022-12-27T17:32:48.528Z,26.67
2022-12-27T17:35:29.164Z,28.67
2022-12-27T17:38:22.053Z,28.80
2022-12-27T17:41:18.848Z,39.87
2022-12-27T17:44:35.691Z,55.95
2022-12-27T17:47:55.232Z,31.00
2022-12-27T17:50:27.865Z,43.77
2022-12-27T17:53:37.908Z,24.83
2022-12-27T17:56:55.378Z,18.40
2022-12-27T17:59:29.021Z,17.30
2022-12-27T18:02:23.526Z,18.03
2022-12-27T18:04:56.904Z,15.00
2022-12-27T18:07:30.714Z,18.17
2022-12-27T18:10:16.967Z,14.80
2022-12-27T18:12:55.885Z,14.80
2022-12-27T18:15:30.113Z,13.03
2022-12-27T18:18:04.886Z,18.57
2022-12-27T18:20:38.053Z,13.47
2022-12-27T18:23:10.382Z,12.77
2022-12-27T18:25:44.624Z,13.57
2022-12-27T18:28:18.450Z,10.13
2022-12-27T18:31:19.046Z,11.57
2022-12-27T18:33:53.330Z,14.30
2022-12-27T18:36:36.978Z,10.37
2022-12-27T18:39:31.254Z,11.97
2022-12-27T18:42:05.530Z,12.40
2022-12-27T18:44:46.512Z,13.70
2022-12-27T18:47:24.663Z,9.53
2022-12-27T18:50:02.583Z,16.37
2022-12-27T18:52:38.295Z,13.13
2022-12-27T18:55:32.119Z,15.30
2022-12-27T18:58:20.726Z,11.53
2022-12-27T19:01:01.950Z,10.47
2022-12-27T19:03:40.146Z,9.87
2022-12-27T19:06:13.339Z,12.70
2022-12-27T19:08:47.772Z,14.20
2022-12-27T19:11:21.569Z,17.27
2022-12-27T19:13:56.615Z,11.83
2022-12-27T19:16:34.671Z,14.67
2022-12-27T19:19:18.296Z,11.07
2022-12-27T19:21:49.631Z,10.90
2022-12-27T19:24:23.650Z,17.67
2022-12-27T19:26:57.604Z,14.33
2022-12-27T19:29:36.507Z,12.03
2022-12-27T19:32:12.263Z,12.87
2022-12-27T19:34:54.570Z,13.07
2022-12-27T19:37:28.708Z,16.43
2022-12-27T19:40:00.258Z,11.33
2022-12-27T19:42:34.665Z,12.30
2022-12-27T19:45:06.417Z,15.20
2022-12-27T19:47:39.711Z,21.40
2022-12-27T19:50:11.936Z,13.37
2022-12-27T19:52:47.144Z,15.37
2022-12-27T19:55:24.099Z,14.80
2022-12-27T19:57:56.367Z,18.70
2022-12-27T20:00:27.759Z,17.43
2022-12-27T20:02:59.865Z,14.47
2022-12-27T20:06:14.729Z,17.00
2022-12-27T20:08:28.305Z,17.80
2022-12-27T20:11:00.931Z,15.03
2022-12-27T20:13:32.685Z,16.67
2022-12-27T20:16:05.184Z,23.93
2022-12-27T20:18:41.296Z,19.37
2022-12-27T20:21:18.047Z,18.58
2022-12-27T20:23:50.169Z,19.63
2022-12-27T20:26:23.897Z,17.77
2022-12-27T20:28:55.208Z,18.67
2022-12-27T20:31:26.628Z,16.07
2022-12-27T20:33:58.045Z,18.20
2022-12-27T20:36:29.330Z,21.83
2022-12-27T20:39:00.762Z,18.60
2022-12-27T20:41:32.056Z,22.97
2022-12-27T20:44:03.800Z,25.03
2022-12-27T20:46:35.154Z,19.47
2022-12-27T20:49:07.057Z,19.93
2022-12-27T20:51:38.570Z,23.20
2022-12-27T20:54:11.795Z,19.57
2022-12-27T20:56:43.258Z,24.77
2022-12-27T20:59:14.571Z,19.70
2022-12-27T21:01:45.984Z,17.67
2022-12-27T21:04:17.288Z,26.47
2022-12-27T21:06:48.558Z,19.80
2022-12-27T21:09:19.925Z,20.70
2022-12-27T21:11:52.967Z,22.70
2022-12-27T21:14:24.358Z,22.67
2022-12-27T21:16:55.809Z,23.43
2022-12-27T21:19:27.103Z,26.00
2022-12-27T21:21:58.648Z,24.13
2022-12-27T21:24:30.016Z,21.17
2022-12-27T21:27:01.441Z,28.77
2022-12-27T21:29:32.793Z,19.30
2022-12-27T21:32:04.386Z,21.90
2022-12-27T21:34:35.838Z,19.83
2022-12-27T21:37:12.997Z,21.37
2022-12-27T21:39:44.901Z,17.27
2022-12-27T21:42:16.247Z,17.07
2022-12-27T21:44:47.595Z,20.20
2022-12-27T21:47:18.877Z,15.00
2022-12-27T21:49:50.143Z,21.13
2022-12-27T21:52:21.494Z,18.23
2022-12-27T21:54:52.783Z,23.77
2022-12-27T21:57:24.051Z,18.23
2022-12-27T21:59:55.965Z,20.17
2022-12-27T22:02:27.381Z,23.40
2022-12-27T22:04:58.749Z,20.53
2022-12-27T22:07:30.029Z,14.67
2022-12-27T22:10:01.681Z,22.53
2022-12-27T22:12:33.098Z,12.37
2022-12-27T22:15:04.673Z,17.80
2022-12-27T22:17:35.937Z,17.30
2022-12-27T22:20:07.927Z,12.17
2022-12-27T22:22:39.299Z,10.80
2022-12-27T22:25:10.682Z,16.37
2022-12-27T22:27:42.104Z,15.87
2022-12-27T22:30:13.564Z,17.50
2022-12-27T22:32:44.852Z,12.10
2022-12-27T22:35:16.249Z,14.27
2022-12-27T22:37:47.519Z,12.07
2022-12-27T22:40:25.960Z,12.27
2022-12-27T22:43:09.303Z,12.73
2022-12-27T22:45:42.505Z,9.93
2022-12-27T22:48:13.900Z,11.17
2022-12-27T22:50:45.240Z,13.93
2022-12-27T22:53:16.542Z,9.37
2022-12-27T22:55:48.846Z,8.80
2022-12-27T22:58:20.191Z,9.00
2022-12-27T23:00:51.467Z,12.00
2022-12-27T23:03:23.177Z,8.00
2022-12-27T23:06:01.278Z,6.50
2022-12-27T23:08:32.728Z,9.67
2022-12-27T23:11:07.169Z,7.50
2022-12-27T23:13:38.610Z,9.43
2022-12-27T23:16:10.240Z,7.33
2022-12-27T23:18:41.840Z,9.13
2022-12-27T23:21:20.323Z,7.77
2022-12-27T23:23:54.472Z,7.53
2022-12-27T23:26:26.020Z,11.23
2022-12-27T23:28:58.007Z,4.23
2022-12-27T23:31:29.828Z,5.43
2022-12-27T23:34:01.176Z,7.83
2022-12-27T23:36:32.971Z,6.23
2022-12-27T23:39:04.559Z,8.20
2022-12-27T23:41:37.047Z,4.53
2022-12-27T23:44:08.435Z,5.57
2022-12-27T23:46:39.837Z,8.63
2022-12-27T23:49:11.191Z,4.87
2022-12-27T23:51:42.456Z,3.87
2022-12-27T23:54:13.727Z,3.93
2022-12-27T23:56:45.000Z,6.60
2022-12-27T23:59:16.726Z,8.43
